createdAt,value
2023-05-25T00:00:32.301Z,7.91
2023-05-25T00:01:34.096Z,7.91
2023-05-25T00:02:34.103Z,7.91
2023-05-25T00:03:34.869Z,7.90
2023-05-25T00:04:35.592Z,7.90
2023-05-25T00:05:36.151Z,7.90
2023-05-25T00:06:37.080Z,7.90
2023-05-25T00:07:37.912Z,7.90
2023-05-25T00:08:38.571Z,7.90
2023-05-25T00:09:39.264Z,7.91
2023-05-25T00:10:39.996Z,7.91
2023-05-25T00:10:48.602Z,7.98
2023-05-25T00:11:49.439Z,7.98
2023-05-25T00:12:50.101Z,7.98
2023-05-25T00:13:50.641Z,7.97
2023-05-25T00:14:51.081Z,7.97
2023-05-25T00:15:51.922Z,7.96
2023-05-25T00:16:52.021Z,7.96
2023-05-25T00:17:52.216Z,7.95
2023-05-25T00:18:52.684Z,7.94
2023-05-25T00:19:53.182Z,7.93
2023-05-25T00:20:53.600Z,7.92
2023-05-25T00:21:55.159Z,7.91
2023-05-25T00:22:54.612Z,7.90
2023-05-25T00:23:56.419Z,7.89
2023-05-25T00:24:56.093Z,7.87
2023-05-25T00:25:56.664Z,7.86
2023-05-25T00:26:57.525Z,7.85
2023-05-25T00:27:57.579Z,7.84
2023-05-25T00:28:58.358Z,7.82
2023-05-25T00:29:59.062Z,7.81
2023-05-25T00:30:59.694Z,7.80
2023-05-25T00:32:01.389Z,7.79
2023-05-25T00:33:00.908Z,7.78
2023-05-25T00:34:01.438Z,7.78
2023-05-25T00:35:02.853Z,7.77
2023-05-25T00:36:02.293Z,7.76
2023-05-25T00:37:02.417Z,7.76
2023-05-25T00:38:03.050Z,7.75
2023-05-25T00:39:03.470Z,7.74
2023-05-25T00:40:03.806Z,7.73
2023-05-25T00:41:04.281Z,7.71
2023-05-25T00:42:05.106Z,7.70
2023-05-25T00:43:05.376Z,7.69
2023-05-25T00:44:06.202Z,7.68
2023-05-25T00:44:16.286Z,7.55
2023-05-25T00:45:17.116Z,7.55
2023-05-25T00:46:17.950Z,7.55
2023-05-25T00:47:18.459Z,7.55
2023-05-25T00:48:19.019Z,7.54
2023-05-25T00:49:19.821Z,7.54
2023-05-25T00:50:20.317Z,7.54
2023-05-25T00:51:20.931Z,7.54
2023-05-25T00:52:21.791Z,7.53
2023-05-25T00:53:22.243Z,7.53
2023-05-25T00:54:22.735Z,7.52
2023-05-25T00:55:23.417Z,7.52
2023-05-25T00:56:23.838Z,7.51
2023-05-25T00:57:24.735Z,7.51
2023-05-25T00:58:25.212Z,7.50
2023-05-25T00:59:26.063Z,7.50
2023-05-25T01:00:27.496Z,7.49
2023-05-25T01:01:26.936Z,7.48
2023-05-25T01:02:27.413Z,7.48
2023-05-25T01:03:28.259Z,7.47
2023-05-25T01:04:28.595Z,7.46
2023-05-25T01:05:29.028Z,7.45
2023-05-25T01:06:29.562Z,7.44
2023-05-25T01:07:30.168Z,7.43
2023-05-25T01:08:31.651Z,7.42
2023-05-25T01:09:31.274Z,7.42
2023-05-25T01:10:32.958Z,7.41
2023-05-25T01:11:32.544Z,7.40
2023-05-25T01:12:33.292Z,7.39
2023-05-25T01:13:34.062Z,7.38
2023-05-25T01:14:35.016Z,7.36
2023-05-25T01:15:35.439Z,7.35
2023-05-25T01:16:36.218Z,7.34
2023-05-25T01:17:36.409Z,7.33
2023-05-25T01:18:37.031Z,7.31
2023-05-25T01:18:49.112Z,7.05
2023-05-25T01:20:01.599Z,7.05
2023-05-25T01:20:50.252Z,7.05
2023-05-25T01:21:50.687Z,7.04
2023-05-25T01:22:51.129Z,7.04
2023-05-25T01:23:51.639Z,7.04
2023-05-25T01:24:52.247Z,7.03
2023-05-25T01:25:52.778Z,7.03
2023-05-25T01:26:53.297Z,7.03
2023-05-25T01:27:54.497Z,7.03
2023-05-25T01:28:54.000Z,7.02
2023-05-25T01:29:54.484Z,7.02
2023-05-25T01:30:54.983Z,7.02
2023-05-25T01:31:56.523Z,7.02
2023-05-25T01:32:55.976Z,7.03
2023-05-25T01:33:56.466Z,7.03
2023-05-25T01:34:58.035Z,7.04
2023-05-25T01:35:57.861Z,7.04
2023-05-25T01:36:58.352Z,7.05
2023-05-25T01:37:59.247Z,7.06
2023-05-25T01:38:59.934Z,7.07
2023-05-25T01:40:00.635Z,7.07
2023-05-25T01:41:01.217Z,7.08
2023-05-25T01:42:02.054Z,7.09
2023-05-25T01:43:02.725Z,7.09
2023-05-25T01:44:03.442Z,7.10
2023-05-25T01:45:04.444Z,7.10
2023-05-25T01:46:05.116Z,7.11
2023-05-25T01:47:05.649Z,7.10
2023-05-25T01:48:06.528Z,7.10
2023-05-25T01:49:07.162Z,7.10
2023-05-25T01:50:07.765Z,7.10
2023-05-25T01:50:17.409Z,7.01
2023-05-25T01:51:17.859Z,7.01
2023-05-25T01:52:18.654Z,7.01
2023-05-25T01:53:19.502Z,7.01
2023-05-25T01:54:20.055Z,7.00
2023-05-25T01:55:21.710Z,7.00
2023-05-25T01:56:21.329Z,7.00
2023-05-25T01:57:21.990Z,7.00
2023-05-25T01:58:22.804Z,7.00
2023-05-25T01:59:23.570Z,7.00
2023-05-25T02:00:24.384Z,7.00
2023-05-25T02:01:25.252Z,6.99
2023-05-25T02:02:26.002Z,7.00
2023-05-25T02:03:26.797Z,7.00
2023-05-25T02:04:27.607Z,7.00
2023-05-25T02:05:28.359Z,7.00
2023-05-25T02:06:29.078Z,7.00
2023-05-25T02:07:30.026Z,7.00
2023-05-25T02:08:30.753Z,6.99
2023-05-25T02:09:30.902Z,6.99
2023-05-25T02:10:31.743Z,6.99
2023-05-25T02:11:32.553Z,6.98
2023-05-25T02:12:33.265Z,6.97
2023-05-25T02:13:34.002Z,6.96
2023-05-25T02:14:34.901Z,6.95
2023-05-25T02:15:35.889Z,6.93
2023-05-25T02:16:36.505Z,6.92
2023-05-25T02:17:36.975Z,6.91
2023-05-25T02:18:37.874Z,6.90
2023-05-25T02:19:37.943Z,6.89
2023-05-25T02:21:20.774Z,6.89
2023-05-25T02:22:21.424Z,6.88
2023-05-25T02:22:30.045Z,6.74
2023-05-25T02:23:30.990Z,6.74
2023-05-25T02:24:31.471Z,6.74
2023-05-25T02:25:31.935Z,6.74
2023-05-25T02:26:32.434Z,6.74
2023-05-25T02:27:33.071Z,6.74
2023-05-25T02:28:33.525Z,6.74
2023-05-25T02:29:33.998Z,6.73
2023-05-25T02:30:34.748Z,6.73
2023-05-25T02:31:35.628Z,6.73
2023-05-25T02:32:35.677Z,6.73
2023-05-25T02:33:36.221Z,6.72
2023-05-25T02:34:36.840Z,6.72
2023-05-25T02:35:37.686Z,6.72
2023-05-25T02:36:38.370Z,6.72
2023-05-25T02:37:39.314Z,6.71
2023-05-25T02:38:39.556Z,6.71
2023-05-25T02:39:40.290Z,6.71
2023-05-25T02:40:41.066Z,6.70
2023-05-25T02:41:41.677Z,6.70
2023-05-25T02:42:42.392Z,6.69
2023-05-25T02:43:42.859Z,6.69
2023-05-25T02:44:43.418Z,6.69
2023-05-25T02:45:44.024Z,6.68
2023-05-25T02:46:44.494Z,6.67
2023-05-25T02:47:45.138Z,6.66
2023-05-25T02:48:45.540Z,6.65
2023-05-25T02:49:46.039Z,6.64
2023-05-25T02:50:46.483Z,6.63
2023-05-25T02:51:47.068Z,6.63
2023-05-25T02:52:47.814Z,6.62
2023-05-25T02:53:48.212Z,6.62
2023-05-25T02:54:48.747Z,6.62
2023-05-25T02:55:48.944Z,6.62
2023-05-25T02:56:49.936Z,6.61
2023-05-25T02:56:59.146Z,6.43
2023-05-25T02:57:59.906Z,6.43
2023-05-25T02:59:00.505Z,6.43
2023-05-25T03:00:01.025Z,6.43
2023-05-25T03:01:01.942Z,6.43
2023-05-25T03:02:03.573Z,6.43
2023-05-25T03:03:03.679Z,6.43
2023-05-25T03:04:03.839Z,6.43
2023-05-25T03:05:04.839Z,6.44
2023-05-25T03:06:04.523Z,6.44
2023-05-25T03:07:05.167Z,6.43
2023-05-25T03:08:05.705Z,6.43
2023-05-25T03:09:06.180Z,6.43
2023-05-25T03:10:06.893Z,6.42
2023-05-25T03:11:07.453Z,6.42
2023-05-25T03:12:08.147Z,6.42
2023-05-25T03:13:08.780Z,6.41
2023-05-25T03:14:09.316Z,6.41
2023-05-25T03:15:09.420Z,6.40
2023-05-25T03:16:09.975Z,6.39
2023-05-25T03:17:10.872Z,6.39
2023-05-25T03:18:11.389Z,6.38
2023-05-25T03:19:12.089Z,6.37
2023-05-25T03:20:12.639Z,6.36
2023-05-25T03:21:13.219Z,6.35
2023-05-25T03:22:13.979Z,6.34
2023-05-25T03:23:14.416Z,6.33
2023-05-25T03:24:14.954Z,6.32
2023-05-25T03:25:15.474Z,6.32
2023-05-25T03:26:16.123Z,6.31
2023-05-25T03:27:16.829Z,6.30
2023-05-25T03:28:17.606Z,6.29
2023-05-25T03:29:18.368Z,6.29
2023-05-25T03:30:19.016Z,6.28
2023-05-25T03:30:27.652Z,6.19
2023-05-25T03:31:28.572Z,6.19
2023-05-25T03:32:29.295Z,6.19
2023-05-25T03:33:29.288Z,6.19
2023-05-25T03:34:30.077Z,6.19
2023-05-25T03:35:30.866Z,6.19
2023-05-25T03:36:31.869Z,6.19
2023-05-25T03:37:32.653Z,6.19
2023-05-25T03:38:33.473Z,6.18
2023-05-25T03:39:34.279Z,6.18
2023-05-25T03:40:35.012Z,6.18
2023-05-25T03:41:35.210Z,6.17
2023-05-25T03:42:36.157Z,6.17
2023-05-25T03:43:36.221Z,6.16
2023-05-25T03:44:38.324Z,6.16
2023-05-25T03:45:36.929Z,6.16
2023-05-25T03:46:37.997Z,6.16
2023-05-25T03:47:38.808Z,6.16
2023-05-25T03:48:39.434Z,6.16
2023-05-25T03:49:40.169Z,6.16
2023-05-25T03:50:40.193Z,6.16
2023-05-25T03:51:40.996Z,6.15
2023-05-25T03:52:41.721Z,6.15
2023-05-25T03:53:42.429Z,6.15
2023-05-25T03:54:42.530Z,6.15
2023-05-25T03:55:43.846Z,6.15
2023-05-25T03:56:43.594Z,6.15
2023-05-25T03:57:44.466Z,6.15
2023-05-25T03:58:45.163Z,6.15
2023-05-25T03:59:45.929Z,6.15
2023-05-25T04:00:45.878Z,6.15
2023-05-25T04:01:45.993Z,6.15
2023-05-25T04:01:54.662Z,6.15
2023-05-25T04:02:55.497Z,6.15
2023-05-25T04:03:56.142Z,6.15
2023-05-25T04:04:56.603Z,6.16
2023-05-25T04:05:57.326Z,6.16
2023-05-25T04:06:58.154Z,6.17
2023-05-25T04:07:59.099Z,6.17
2023-05-25T04:08:59.660Z,6.18
2023-05-25T04:10:01.329Z,6.19
2023-05-25T04:11:00.991Z,6.20
2023-05-25T04:12:01.562Z,6.20
2023-05-25T04:13:02.316Z,6.21
2023-05-25T04:14:02.987Z,6.22
2023-05-25T04:15:03.604Z,6.23
2023-05-25T04:16:03.811Z,6.24
2023-05-25T04:17:04.591Z,6.25
2023-05-25T04:18:05.423Z,6.25
2023-05-25T04:19:05.964Z,6.26
2023-05-25T04:20:06.802Z,6.26
2023-05-25T04:21:07.357Z,6.27
2023-05-25T04:22:08.000Z,6.27
2023-05-25T04:23:09.859Z,6.28
2023-05-25T04:24:09.536Z,6.29
2023-05-25T04:25:10.247Z,6.30
2023-05-25T04:26:10.862Z,6.31
2023-05-25T04:27:11.513Z,6.33
2023-05-25T04:28:12.118Z,6.35
2023-05-25T04:29:12.861Z,6.37
2023-05-25T04:30:13.613Z,6.39
2023-05-25T04:31:14.220Z,6.42
2023-05-25T04:32:14.833Z,6.45
2023-05-25T04:32:24.023Z,6.40
2023-05-25T04:33:24.446Z,6.43
2023-05-25T04:34:24.927Z,6.47
2023-05-25T04:35:25.389Z,6.50
2023-05-25T04:36:25.863Z,6.53
2023-05-25T04:37:26.335Z,6.57
2023-05-25T04:38:27.082Z,6.60
2023-05-25T04:39:27.717Z,6.64
2023-05-25T04:40:29.690Z,6.68
2023-05-25T04:41:30.313Z,6.71
2023-05-25T04:42:29.963Z,6.76
2023-05-25T04:43:30.968Z,6.80
2023-05-25T04:44:31.716Z,6.86
2023-05-25T04:45:32.551Z,6.91
2023-05-25T04:46:33.403Z,6.97
2023-05-25T04:47:34.245Z,7.03
2023-05-25T04:48:34.973Z,7.10
2023-05-25T04:49:35.641Z,7.17
2023-05-25T04:50:35.784Z,7.26
2023-05-25T04:51:36.515Z,7.35
2023-05-25T04:52:37.353Z,7.45
2023-05-25T04:53:37.655Z,7.57
2023-05-25T04:54:38.432Z,7.69
2023-05-25T04:55:39.363Z,7.83
2023-05-25T04:56:40.049Z,8.00
2023-05-25T04:57:40.956Z,8.18
2023-05-25T04:58:41.562Z,8.37
2023-05-25T04:59:42.209Z,8.57
2023-05-25T05:00:42.689Z,8.77
2023-05-25T05:01:43.346Z,8.95
2023-05-25T05:02:44.299Z,9.13
2023-05-25T05:02:53.182Z,10.36
2023-05-25T05:03:53.584Z,11.97
2023-05-25T05:04:54.307Z,11.99
2023-05-25T05:05:54.819Z,11.98
2023-05-25T05:06:56.139Z,12.00
2023-05-25T05:07:55.836Z,12.03
2023-05-25T05:08:56.686Z,12.09
2023-05-25T05:09:57.449Z,12.17
2023-05-25T05:10:58.231Z,12.28
2023-05-25T05:11:58.932Z,12.40
2023-05-25T05:12:59.732Z,12.51
2023-05-25T05:14:00.536Z,12.63
2023-05-25T05:15:01.447Z,12.77
2023-05-25T05:16:02.325Z,12.89
2023-05-25T05:17:02.767Z,13.03
2023-05-25T05:18:03.524Z,13.15
2023-05-25T05:19:04.579Z,13.26
2023-05-25T05:20:05.163Z,13.39
2023-05-25T05:21:05.826Z,13.52
2023-05-25T05:22:06.477Z,13.66
2023-05-25T05:23:07.119Z,13.81
2023-05-25T05:24:07.815Z,13.93
2023-05-25T05:25:08.406Z,14.05
2023-05-25T05:26:08.968Z,14.17
2023-05-25T05:27:09.667Z,14.33
2023-05-25T05:28:10.140Z,14.51
2023-05-25T05:29:10.520Z,14.70
2023-05-25T05:30:10.931Z,14.88
2023-05-25T05:31:11.492Z,15.06
2023-05-25T05:32:11.989Z,15.24
2023-05-25T05:33:12.827Z,15.42
2023-05-25T05:34:13.215Z,15.54
2023-05-25T05:34:21.804Z,14.06
2023-05-25T05:35:22.281Z,17.57
2023-05-25T05:36:24.179Z,17.56
2023-05-25T05:37:23.887Z,17.58
2023-05-25T05:38:23.976Z,17.63
2023-05-25T05:39:24.090Z,17.70
2023-05-25T05:40:24.737Z,17.76
2023-05-25T05:41:25.506Z,17.80
2023-05-25T05:42:26.112Z,17.83
2023-05-25T05:43:26.806Z,17.89
2023-05-25T05:44:29.332Z,17.95
2023-05-25T05:45:28.115Z,18.00
2023-05-25T05:46:28.876Z,17.99
2023-05-25T05:47:29.574Z,17.95
2023-05-25T05:48:30.171Z,17.95
2023-05-25T05:49:30.618Z,18.02
2023-05-25T05:50:31.484Z,18.11
2023-05-25T05:51:32.438Z,18.22
2023-05-25T05:52:33.234Z,18.30
2023-05-25T05:53:33.800Z,18.31
2023-05-25T05:54:34.308Z,18.32
2023-05-25T05:55:34.848Z,18.38
2023-05-25T05:56:35.435Z,18.45
2023-05-25T05:57:35.916Z,18.56
2023-05-25T05:58:36.740Z,18.63
2023-05-25T05:59:37.226Z,18.65
2023-05-25T06:00:37.749Z,18.69
2023-05-25T06:01:38.650Z,18.74
2023-05-25T06:02:41.488Z,18.84
2023-05-25T06:03:39.761Z,18.94
2023-05-25T06:04:40.242Z,19.04
2023-05-25T06:05:40.788Z,19.10
2023-05-25T06:05:49.485Z,15.61
2023-05-25T06:06:49.851Z,19.22
2023-05-25T06:07:50.306Z,19.25
2023-05-25T06:08:50.756Z,19.31
2023-05-25T06:09:51.154Z,19.40
2023-05-25T06:10:51.612Z,19.51
2023-05-25T06:11:51.592Z,19.65
2023-05-25T06:12:52.380Z,19.81
2023-05-25T06:13:52.889Z,19.94
2023-05-25T06:14:53.732Z,20.04
2023-05-25T06:15:54.253Z,20.15
2023-05-25T06:16:54.352Z,20.25
2023-05-25T06:17:54.530Z,20.36
2023-05-25T06:18:55.012Z,20.46
2023-05-25T06:19:55.629Z,20.55
2023-05-25T06:20:56.031Z,20.67
2023-05-25T06:21:57.990Z,20.78
2023-05-25T06:22:57.424Z,20.89
2023-05-25T06:23:57.954Z,21.01
2023-05-25T06:24:58.647Z,21.09
2023-05-25T06:26:00.275Z,21.16
2023-05-25T06:26:59.863Z,21.21
2023-05-25T06:28:00.300Z,21.21
2023-05-25T06:29:01.307Z,21.23
2023-05-25T06:30:02.006Z,21.28
2023-05-25T06:31:02.498Z,21.29
2023-05-25T06:32:03.045Z,21.29
2023-05-25T06:33:03.451Z,21.29
2023-05-25T06:34:03.968Z,21.30
2023-05-25T06:35:04.595Z,21.30
2023-05-25T06:36:16.329Z,16.86
2023-05-25T06:37:16.557Z,21.02
2023-05-25T06:38:17.237Z,21.01
2023-05-25T06:39:17.768Z,21.03
2023-05-25T06:40:18.473Z,21.05
2023-05-25T06:41:19.135Z,21.06
2023-05-25T06:42:20.050Z,21.10
2023-05-25T06:43:20.681Z,21.13
2023-05-25T06:44:21.321Z,21.18
2023-05-25T06:45:22.119Z,21.25
2023-05-25T06:46:22.342Z,21.32
2023-05-25T06:47:22.555Z,21.40
2023-05-25T06:48:22.662Z,21.48
2023-05-25T06:49:23.467Z,21.56
2023-05-25T06:50:24.241Z,21.65
2023-05-25T06:51:25.068Z,21.74
2023-05-25T06:52:25.867Z,21.82
2023-05-25T06:53:26.570Z,21.89
2023-05-25T06:54:27.258Z,21.96
2023-05-25T06:55:27.663Z,22.02
2023-05-25T06:56:28.302Z,22.06
2023-05-25T06:57:28.919Z,22.10
2023-05-25T06:58:29.586Z,22.15
2023-05-25T06:59:30.223Z,22.17
2023-05-25T07:00:30.889Z,22.20
2023-05-25T07:01:31.841Z,22.22
2023-05-25T07:02:32.333Z,22.26
2023-05-25T07:03:33.082Z,22.28
2023-05-25T07:04:33.466Z,22.26
2023-05-25T07:05:33.546Z,22.24
2023-05-25T07:06:34.429Z,22.23
2023-05-25T07:07:34.703Z,22.23
2023-05-25T07:07:43.314Z,15.79
2023-05-25T07:08:44.223Z,22.39
2023-05-25T07:09:45.674Z,22.37
2023-05-25T07:10:45.362Z,22.37
2023-05-25T07:11:45.574Z,22.41
2023-05-25T07:12:46.099Z,22.43
2023-05-25T07:13:46.619Z,22.47
2023-05-25T07:14:47.447Z,22.49
2023-05-25T07:15:47.938Z,22.46
2023-05-25T07:16:47.885Z,22.42
2023-05-25T07:17:48.194Z,22.37
2023-05-25T07:18:48.654Z,22.29
2023-05-25T07:19:49.141Z,22.20
2023-05-25T07:20:49.416Z,22.11
2023-05-25T07:21:49.510Z,22.00
2023-05-25T07:22:49.697Z,21.85
2023-05-25T07:23:50.391Z,21.72
2023-05-25T07:24:50.735Z,21.59
2023-05-25T07:25:51.016Z,21.47
2023-05-25T07:26:51.073Z,21.35
2023-05-25T07:27:51.255Z,21.25
2023-05-25T07:28:53.194Z,21.15
2023-05-25T07:29:52.962Z,21.03
2023-05-25T07:30:53.943Z,20.93
2023-05-25T07:31:54.599Z,20.81
2023-05-25T07:32:55.365Z,20.68
2023-05-25T07:33:56.091Z,20.55
2023-05-25T07:34:56.827Z,20.42
2023-05-25T07:35:57.768Z,20.28
2023-05-25T07:36:57.920Z,20.17
2023-05-25T07:37:58.840Z,20.07
2023-05-25T07:38:59.544Z,19.98
2023-05-25T07:40:00.210Z,19.86
2023-05-25T07:40:08.854Z,19.48
2023-05-25T07:41:09.340Z,19.39
2023-05-25T07:42:09.973Z,19.31
2023-05-25T07:43:11.594Z,19.23
2023-05-25T07:44:11.572Z,19.16
2023-05-25T07:45:12.399Z,19.07
2023-05-25T07:46:13.281Z,18.99
2023-05-25T07:47:13.507Z,18.94
2023-05-25T07:48:14.195Z,18.86
2023-05-25T07:49:14.914Z,18.80
2023-05-25T07:50:15.543Z,18.75
2023-05-25T07:51:15.532Z,18.69
2023-05-25T07:52:16.123Z,18.64
2023-05-25T07:53:16.835Z,18.58
2023-05-25T07:54:17.481Z,18.51
2023-05-25T07:55:18.312Z,18.45
2023-05-25T07:56:19.090Z,18.39
2023-05-25T07:57:19.830Z,18.34
2023-05-25T07:58:20.678Z,18.30
2023-05-25T07:59:21.665Z,18.27
2023-05-25T08:00:22.648Z,18.23
2023-05-25T08:01:25.536Z,18.20
2023-05-25T08:02:24.391Z,18.15
2023-05-25T08:03:39.741Z,18.08
2023-05-25T08:04:24.918Z,18.02
2023-05-25T08:05:25.525Z,17.96
2023-05-25T08:06:26.449Z,17.91
2023-05-25T08:07:27.283Z,17.86
2023-05-25T08:08:28.349Z,17.81
2023-05-25T08:09:28.186Z,17.77
2023-05-25T08:10:29.010Z,17.74
2023-05-25T08:10:37.693Z,14.44
2023-05-25T08:11:38.476Z,17.54
2023-05-25T08:12:48.830Z,17.53
2023-05-25T08:13:39.928Z,17.54
2023-05-25T08:14:40.703Z,17.55
2023-05-25T08:15:41.077Z,17.56
2023-05-25T08:16:41.123Z,17.56
2023-05-25T08:17:42.015Z,17.58
2023-05-25T08:18:42.292Z,17.59
2023-05-25T08:19:43.203Z,17.61
2023-05-25T08:20:44.104Z,17.64
2023-05-25T08:21:44.906Z,17.66
2023-05-25T08:22:45.623Z,17.69
2023-05-25T08:23:46.511Z,17.72
2023-05-25T08:24:47.400Z,17.76
2023-05-25T08:25:48.173Z,17.80
2023-05-25T08:26:57.121Z,17.83
2023-05-25T08:27:49.711Z,17.84
2023-05-25T08:28:50.597Z,17.83
2023-05-25T08:29:51.327Z,17.83
2023-05-25T08:30:52.204Z,17.82
2023-05-25T08:31:52.904Z,17.77
2023-05-25T08:32:53.014Z,17.73
2023-05-25T08:33:53.814Z,17.70
2023-05-25T08:34:54.627Z,17.68
2023-05-25T08:35:55.493Z,17.68
2023-05-25T08:36:56.471Z,17.68
2023-05-25T08:37:57.186Z,17.70
2023-05-25T08:38:57.240Z,17.73
2023-05-25T08:39:58.104Z,17.75
2023-05-25T08:40:58.978Z,17.78
2023-05-25T08:42:00.820Z,17.80
2023-05-25T08:42:09.426Z,15.25
2023-05-25T08:43:11.068Z,18.43
2023-05-25T08:45:30.365Z,16.43
2023-05-25T08:46:22.960Z,18.46
2023-05-25T08:47:16.719Z,18.46
2023-05-25T08:48:27.292Z,18.45
2023-05-25T08:49:16.930Z,18.45
2023-05-25T08:50:17.685Z,18.45
2023-05-25T08:51:17.693Z,18.46
2023-05-25T08:52:18.438Z,18.47
2023-05-25T08:53:19.135Z,18.48
2023-05-25T08:54:19.430Z,18.50
2023-05-25T08:55:20.209Z,18.51
2023-05-25T08:56:20.940Z,18.54
2023-05-25T08:57:21.612Z,18.56
2023-05-25T08:58:22.075Z,18.58
2023-05-25T08:59:23.002Z,18.59
2023-05-25T09:00:23.747Z,18.62
2023-05-25T09:01:24.644Z,18.66
2023-05-25T09:02:25.040Z,18.69
2023-05-25T09:03:25.926Z,18.71
2023-05-25T09:04:26.707Z,18.73
2023-05-25T09:05:27.549Z,18.75
2023-05-25T09:06:28.195Z,18.73
2023-05-25T09:07:28.958Z,18.72
2023-05-25T09:08:29.321Z,18.72
2023-05-25T09:09:29.486Z,18.74
2023-05-25T09:10:30.343Z,18.76
2023-05-25T09:11:38.874Z,18.77
2023-05-25T09:12:31.841Z,18.78
2023-05-25T09:13:32.583Z,18.78
2023-05-25T09:14:33.277Z,18.80
2023-05-25T09:15:34.109Z,18.80
2023-05-25T09:16:34.868Z,18.81
2023-05-25T09:16:46.563Z,15.75
2023-05-25T09:17:47.264Z,19.02
2023-05-25T09:18:48.072Z,19.02
2023-05-25T09:19:48.730Z,19.03
2023-05-25T09:20:49.913Z,19.04
2023-05-25T09:21:52.930Z,19.05
2023-05-25T09:22:50.901Z,19.07
2023-05-25T09:23:50.926Z,19.07
2023-05-25T09:24:50.965Z,19.08
2023-05-25T09:25:51.754Z,19.09
2023-05-25T09:26:52.519Z,19.11
2023-05-25T09:27:53.358Z,19.10
2023-05-25T09:28:54.219Z,19.09
2023-05-25T09:29:55.114Z,19.09
2023-05-25T09:30:55.866Z,19.08
2023-05-25T09:31:56.910Z,19.08
2023-05-25T09:32:57.691Z,19.10
2023-05-25T09:33:58.528Z,19.12
2023-05-25T09:34:59.416Z,19.15
2023-05-25T09:36:00.240Z,19.18
2023-05-25T09:37:02.229Z,19.21
2023-05-25T09:38:02.442Z,19.23
2023-05-25T09:39:03.072Z,19.22
2023-05-25T09:40:03.044Z,19.22
2023-05-25T09:41:03.949Z,19.21
2023-05-25T09:42:04.856Z,19.20
2023-05-25T09:43:05.592Z,19.19
2023-05-25T09:44:11.273Z,19.19
2023-05-25T09:45:06.950Z,19.22
2023-05-25T09:46:07.756Z,19.24
2023-05-25T09:47:08.456Z,19.27
2023-05-25T09:48:09.414Z,19.30
2023-05-25T09:49:09.968Z,19.32
2023-05-25T09:49:18.602Z,15.89
2023-05-25T09:50:19.609Z,19.63
2023-05-25T09:51:20.230Z,19.64
2023-05-25T09:52:21.020Z,19.63
2023-05-25T09:53:21.782Z,19.62
2023-05-25T09:54:22.513Z,19.61
2023-05-25T09:55:23.385Z,19.60
2023-05-25T09:56:24.092Z,19.57
2023-05-25T09:57:24.451Z,19.56
2023-05-25T09:58:25.285Z,19.56
2023-05-25T09:59:25.461Z,19.55
2023-05-25T10:00:26.348Z,19.55
2023-05-25T10:01:27.095Z,19.56
2023-05-25T10:02:27.789Z,19.58
2023-05-25T10:03:28.538Z,19.59
2023-05-25T10:04:29.182Z,19.61
2023-05-25T10:05:29.858Z,19.63
2023-05-25T10:06:30.778Z,19.64
2023-05-25T10:07:31.480Z,19.65
2023-05-25T10:08:34.198Z,19.68
2023-05-25T10:09:32.872Z,19.70
2023-05-25T10:10:33.709Z,19.73
2023-05-25T10:11:34.353Z,19.75
2023-05-25T10:12:35.133Z,19.77
2023-05-25T10:13:35.797Z,19.79
2023-05-25T10:14:35.971Z,19.81
2023-05-25T10:15:36.802Z,19.82
2023-05-25T10:16:37.729Z,19.84
2023-05-25T10:17:38.409Z,19.85
2023-05-25T10:18:39.061Z,19.85
2023-05-25T10:19:39.739Z,19.85
2023-05-25T10:20:40.634Z,19.86
2023-05-25T10:21:41.437Z,19.87
2023-05-25T10:21:50.063Z,15.08
2023-05-25T10:22:51.040Z,20.04
2023-05-25T10:23:52.946Z,20.05
2023-05-25T10:24:52.678Z,20.06
2023-05-25T10:25:53.456Z,20.07
2023-05-25T10:26:53.444Z,20.09
2023-05-25T10:27:54.529Z,20.11
2023-05-25T10:28:54.790Z,20.14
2023-05-25T10:29:55.553Z,20.18
2023-05-25T10:30:56.424Z,20.20
2023-05-25T10:31:57.321Z,20.23
2023-05-25T10:32:58.124Z,20.27
2023-05-25T10:33:58.875Z,20.31
2023-05-25T10:34:59.732Z,20.36
2023-05-25T10:36:09.281Z,20.41
2023-05-25T10:37:01.513Z,20.45
2023-05-25T10:38:02.325Z,20.48
2023-05-25T10:39:03.294Z,20.51
2023-05-25T10:40:03.951Z,20.53
2023-05-25T10:41:04.929Z,20.54
2023-05-25T10:42:05.711Z,20.56
2023-05-25T10:43:06.207Z,20.58
2023-05-25T10:44:06.226Z,20.62
2023-05-25T10:45:07.166Z,20.66
2023-05-25T10:46:08.057Z,20.70
2023-05-25T10:47:08.959Z,20.74
2023-05-25T10:48:09.856Z,20.78
2023-05-25T10:49:09.936Z,20.80
2023-05-25T10:50:10.291Z,20.81
2023-05-25T10:51:12.184Z,20.82
2023-05-25T10:52:11.729Z,20.84
2023-05-25T10:53:12.517Z,20.85
2023-05-25T10:53:21.166Z,17.18
2023-05-25T10:54:21.958Z,21.21
2023-05-25T10:55:22.698Z,21.22
2023-05-25T10:56:23.506Z,21.24
2023-05-25T10:57:24.421Z,21.26
2023-05-25T10:58:25.292Z,21.28
2023-05-25T10:59:25.911Z,21.29
2023-05-25T11:00:27.254Z,21.29
2023-05-25T11:01:26.306Z,21.29
2023-05-25T11:02:27.143Z,21.29
2023-05-25T11:03:27.862Z,21.29
2023-05-25T11:04:28.688Z,21.30
2023-05-25T11:05:29.301Z,21.30
2023-05-25T11:06:30.194Z,21.30
2023-05-25T11:07:31.145Z,21.32
2023-05-25T11:08:31.969Z,21.35
2023-05-25T11:09:32.805Z,21.38
2023-05-25T11:10:33.587Z,21.41
2023-05-25T11:11:33.620Z,21.44
2023-05-25T11:12:35.660Z,21.47
2023-05-25T11:13:37.010Z,21.49
2023-05-25T11:14:36.274Z,21.50
2023-05-25T11:15:36.744Z,21.53
2023-05-25T11:16:37.741Z,21.56
2023-05-25T11:17:38.609Z,21.57
2023-05-25T11:18:39.515Z,21.59
2023-05-25T11:19:40.377Z,21.61
2023-05-25T11:20:40.495Z,21.64
2023-05-25T11:21:41.340Z,21.65
2023-05-25T11:22:42.161Z,21.67
2023-05-25T11:23:42.991Z,21.69
2023-05-25T11:24:43.792Z,21.70
2023-05-25T11:25:45.064Z,21.71
2023-05-25T11:26:45.589Z,21.71
2023-05-25T11:26:54.208Z,17.92
2023-05-25T11:27:56.200Z,21.65
2023-05-25T11:28:56.008Z,21.66
2023-05-25T11:29:56.731Z,21.66
2023-05-25T11:30:57.493Z,21.66
2023-05-25T11:31:57.521Z,21.67
2023-05-25T11:32:58.338Z,21.69
2023-05-25T11:33:59.477Z,21.71
2023-05-25T11:34:59.956Z,21.72
2023-05-25T11:36:01.634Z,21.74
2023-05-25T11:37:01.569Z,21.76
2023-05-25T11:38:02.435Z,21.78
2023-05-25T11:39:09.079Z,21.80
2023-05-25T11:40:04.387Z,21.81
2023-05-25T11:41:04.437Z,21.82
2023-05-25T11:42:05.069Z,21.83
2023-05-25T11:43:05.128Z,21.82
2023-05-25T11:44:05.110Z,21.83
2023-05-25T11:45:05.856Z,21.85
2023-05-25T11:46:07.710Z,21.87
2023-05-25T11:47:07.442Z,21.90
2023-05-25T11:48:08.480Z,21.93
2023-05-25T11:49:08.411Z,21.95
2023-05-25T11:50:09.243Z,21.97
2023-05-25T11:51:10.050Z,21.98
2023-05-25T11:52:10.972Z,21.99
2023-05-25T11:53:12.190Z,22.00
2023-05-25T11:54:11.939Z,22.00
2023-05-25T11:55:12.735Z,22.00
2023-05-25T11:57:14.460Z,21.99
2023-05-25T11:57:23.600Z,18.37
2023-05-25T11:58:23.696Z,21.73
2023-05-25T11:59:24.770Z,21.73
2023-05-25T12:00:25.263Z,21.74
2023-05-25T12:01:25.854Z,21.74
2023-05-25T12:02:26.835Z,21.75
2023-05-25T12:03:27.265Z,21.75
2023-05-25T12:04:28.238Z,21.76
2023-05-25T12:05:28.337Z,21.76
2023-05-25T12:06:28.888Z,21.78
2023-05-25T12:07:29.732Z,21.80
2023-05-25T12:08:30.380Z,21.82
2023-05-25T12:09:32.034Z,21.85
2023-05-25T12:10:31.707Z,21.88
2023-05-25T12:11:32.322Z,21.90
2023-05-25T12:12:33.219Z,21.92
2023-05-25T12:13:34.015Z,21.93
2023-05-25T12:14:34.663Z,21.96
2023-05-25T12:15:35.485Z,21.98
2023-05-25T12:16:36.254Z,21.99
2023-05-25T12:17:37.285Z,22.00
2023-05-25T12:18:37.936Z,22.01
2023-05-25T12:19:38.027Z,22.01
2023-05-25T12:20:38.894Z,22.01
2023-05-25T12:21:39.521Z,22.03
2023-05-25T12:22:40.376Z,22.02
2023-05-25T12:23:41.053Z,22.04
2023-05-25T12:24:41.804Z,22.03
2023-05-25T12:25:50.946Z,22.02
2023-05-25T12:26:43.472Z,22.02
2023-05-25T12:26:52.115Z,18.05
2023-05-25T12:27:52.832Z,22.20
2023-05-25T12:28:52.947Z,22.20
2023-05-25T12:29:53.664Z,22.20
2023-05-25T12:30:54.483Z,22.21
2023-05-25T12:31:55.231Z,22.22
2023-05-25T12:32:55.971Z,22.24
2023-05-25T12:33:56.060Z,22.26
2023-05-25T12:34:56.532Z,22.26
2023-05-25T12:35:57.367Z,22.27
2023-05-25T12:36:58.198Z,22.29
2023-05-25T12:37:58.302Z,22.31
2023-05-25T12:38:59.011Z,22.33
2023-05-25T12:40:00.395Z,22.36
2023-05-25T12:41:00.602Z,22.37
2023-05-25T12:42:01.461Z,22.39
2023-05-25T12:43:02.304Z,22.42
2023-05-25T12:44:03.114Z,22.45
2023-05-25T12:45:04.043Z,22.47
2023-05-25T12:46:04.905Z,22.49
2023-05-25T12:47:05.550Z,22.52
2023-05-25T12:48:06.550Z,22.54
2023-05-25T12:49:07.508Z,22.55
2023-05-25T12:50:08.490Z,22.55
2023-05-25T12:51:09.152Z,22.57
2023-05-25T12:52:09.764Z,22.60
2023-05-25T12:53:11.620Z,22.62
2023-05-25T12:54:11.284Z,22.64